sensor_id;sensor_type;location;lat;lon;timestamp;P1;durP1;ratioP1;P2;durP2;ratioP2
47219;SDS011;32961;51.936;4.788;2023-07-31T00:02:04;34.97;;;8.23;;
47219;SDS011;32961;51.936;4.788;2023-07-31T00:04:32;39.85;;;8.65;;
47219;SDS011;32961;51.936;4.788;2023-07-31T00:07:02;31.98;;;7.45;;
47219;SDS011;32961;51.936;4.788;2023-07-31T00:09:30;34.00;;;8.27;;
47219;SDS011;32961;51.936;4.788;2023-07-31T00:11:58;31.42;;;7.45;;
47219;SDS011;32961;51.936;4.788;2023-07-31T00:14:26;29.02;;;7.82;;
47219;SDS011;32961;51.936;4.788;2023-07-31T00:16:54;34.80;;;7.78;;
47219;SDS011;32961;51.936;4.788;2023-07-31T00:19:22;30.00;;;7.32;;
47219;SDS011;32961;51.936;4.788;2023-07-31T00:21:50;40.22;;;8.02;;
47219;SDS011;32961;51.936;4.788;2023-07-31T00:24:19;31.90;;;7.95;;
47219;SDS011;32961;51.936;4.788;2023-07-31T00:26:47;37.05;;;9.75;;
47219;SDS011;32961;51.936;4.788;2023-07-31T00:29:15;35.90;;;8.50;;
47219;SDS011;32961;51.936;4.788;2023-07-31T00:31:42;36.63;;;7.93;;
47219;SDS011;32961;51.936;4.788;2023-07-31T00:34:10;41.25;;;8.18;;
47219;SDS011;32961;51.936;4.788;2023-07-31T00:36:38;26.17;;;7.70;;
47219;SDS011;32961;51.936;4.788;2023-07-31T00:39:06;39.25;;;8.75;;
47219;SDS011;32961;51.936;4.788;2023-07-31T00:41:36;28.55;;;7.85;;
47219;SDS011;32961;51.936;4.788;2023-07-31T00:44:03;41.17;;;9.60;;
47219;SDS011;32961;51.936;4.788;2023-07-31T00:46:31;34.35;;;8.48;;
47219;SDS011;32961;51.936;4.788;2023-07-31T00:48:59;40.83;;;9.77;;
47219;SDS011;32961;51.936;4.788;2023-07-31T00:51:27;34.80;;;8.95;;
47219;SDS011;32961;51.936;4.788;2023-07-31T00:53:55;35.58;;;8.57;;
47219;SDS011;32961;51.936;4.788;2023-07-31T00:56:23;47.00;;;9.77;;
47219;SDS011;32961;51.936;4.788;2023-07-31T00:58:52;38.40;;;8.68;;
47219;SDS011;32961;51.936;4.788;2023-07-31T01:01:20;33.97;;;9.68;;
47219;SDS011;32961;51.936;4.788;2023-07-31T01:03:48;34.92;;;8.65;;
47219;SDS011;32961;51.936;4.788;2023-07-31T01:06:24;32.35;;;9.63;;
47219;SDS011;32961;51.936;4.788;2023-07-31T01:08:59;40.78;;;9.38;;
47219;SDS011;32961;51.936;4.788;2023-07-31T01:11:30;23.17;;;6.15;;
47219;SDS011;32961;51.936;4.788;2023-07-31T01:14:01;17.20;;;5.65;;
47219;SDS011;32961;51.936;4.788;2023-07-31T01:16:30;14.57;;;4.57;;
47219;SDS011;32961;51.936;4.788;2023-07-31T01:18:58;17.48;;;5.00;;
47219;SDS011;32961;51.936;4.788;2023-07-31T01:24:22;14.60;;;3.97;;
47219;SDS011;32961;51.936;4.788;2023-07-31T01:26:57;12.93;;;4.65;;
47219;SDS011;32961;51.936;4.788;2023-07-31T01:29:33;11.50;;;3.55;;
47219;SDS011;32961;51.936;4.788;2023-07-31T01:32:06;13.65;;;3.67;;
47219;SDS011;32961;51.936;4.788;2023-07-31T01:34:35;11.07;;;4.25;;
47219;SDS011;32961;51.936;4.788;2023-07-31T01:37:04;17.75;;;6.07;;
47219;SDS011;32961;51.936;4.788;2023-07-31T01:39:32;22.83;;;6.45;;
47219;SDS011;32961;51.936;4.788;2023-07-31T01:42:01;28.90;;;6.53;;
47219;SDS011;32961;51.936;4.788;2023-07-31T01:44:29;23.10;;;6.35;;
47219;SDS011;32961;51.936;4.788;2023-07-31T01:46:57;33.08;;;8.13;;
47219;SDS011;32961;51.936;4.788;2023-07-31T01:49:26;35.42;;;7.97;;
47219;SDS011;32961;51.936;4.788;2023-07-31T01:51:54;33.67;;;7.10;;
47219;SDS011;32961;51.936;4.788;2023-07-31T01:54:22;29.63;;;7.65;;
47219;SDS011;32961;51.936;4.788;2023-07-31T01:56:50;28.92;;;6.88;;
47219;SDS011;32961;51.936;4.788;2023-07-31T01:59:19;33.58;;;9.07;;
47219;SDS011;32961;51.936;4.788;2023-07-31T02:01:47;39.13;;;8.18;;
47219;SDS011;32961;51.936;4.788;2023-07-31T02:04:16;40.95;;;8.50;;
47219;SDS011;32961;51.936;4.788;2023-07-31T02:06:44;33.78;;;8.15;;
47219;SDS011;32961;51.936;4.788;2023-07-31T02:09:11;33.17;;;8.40;;
47219;SDS011;32961;51.936;4.788;2023-07-31T02:11:39;36.45;;;8.15;;
47219;SDS011;32961;51.936;4.788;2023-07-31T02:14:07;30.67;;;8.35;;
47219;SDS011;32961;51.936;4.788;2023-07-31T02:16:36;32.15;;;9.30;;
47219;SDS011;32961;51.936;4.788;2023-07-31T02:19:05;34.25;;;8.75;;
47219;SDS011;32961;51.936;4.788;2023-07-31T02:21:33;25.45;;;7.28;;
47219;SDS011;32961;51.936;4.788;2023-07-31T02:24:00;35.47;;;8.60;;
47219;SDS011;32961;51.936;4.788;2023-07-31T02:26:30;36.67;;;8.65;;
47219;SDS011;32961;51.936;4.788;2023-07-31T02:28:58;31.80;;;8.55;;
47219;SDS011;32961;51.936;4.788;2023-07-31T02:31:26;31.38;;;8.40;;
47219;SDS011;32961;51.936;4.788;2023-07-31T02:33:55;30.02;;;8.77;;
47219;SDS011;32961;51.936;4.788;2023-07-31T02:36:23;33.30;;;8.45;;
47219;SDS011;32961;51.936;4.788;2023-07-31T02:38:51;40.20;;;8.65;;
47219;SDS011;32961;51.936;4.788;2023-07-31T02:41:18;32.70;;;8.48;;
47219;SDS011;32961;51.936;4.788;2023-07-31T02:43:46;31.00;;;9.30;;
47219;SDS011;32961;51.936;4.788;2023-07-31T02:46:14;37.05;;;11.40;;
47219;SDS011;32961;51.936;4.788;2023-07-31T02:48:42;33.67;;;8.95;;
47219;SDS011;32961;51.936;4.788;2023-07-31T02:51:12;28.95;;;8.65;;
47219;SDS011;32961;51.936;4.788;2023-07-31T02:53:39;26.70;;;8.98;;
47219;SDS011;32961;51.936;4.788;2023-07-31T02:56:06;25.73;;;7.32;;
47219;SDS011;32961;51.936;4.788;2023-07-31T02:58:34;19.90;;;7.15;;
47219;SDS011;32961;51.936;4.788;2023-07-31T03:01:02;28.13;;;7.13;;
47219;SDS011;32961;51.936;4.788;2023-07-31T03:03:30;28.73;;;8.55;;
47219;SDS011;32961;51.936;4.788;2023-07-31T03:05:58;33.38;;;10.30;;
47219;SDS011;32961;51.936;4.788;2023-07-31T03:08:27;26.92;;;7.50;;
47219;SDS011;32961;51.936;4.788;2023-07-31T03:10:56;30.73;;;7.72;;
47219;SDS011;32961;51.936;4.788;2023-07-31T03:13:24;28.00;;;9.70;;
47219;SDS011;32961;51.936;4.788;2023-07-31T03:15:52;27.52;;;7.90;;
47219;SDS011;32961;51.936;4.788;2023-07-31T03:18:20;28.77;;;8.80;;
47219;SDS011;32961;51.936;4.788;2023-07-31T03:20:48;35.67;;;7.85;;
47219;SDS011;32961;51.936;4.788;2023-07-31T03:23:15;28.85;;;7.32;;
47219;SDS011;32961;51.936;4.788;2023-07-31T03:25:56;33.60;;;8.23;;
47219;SDS011;32961;51.936;4.788;2023-07-31T03:28:24;30.75;;;9.85;;
47219;SDS011;32961;51.936;4.788;2023-07-31T03:30:52;25.92;;;7.32;;
47219;SDS011;32961;51.936;4.788;2023-07-31T03:33:21;27.73;;;7.90;;
47219;SDS011;32961;51.936;4.788;2023-07-31T03:35:48;24.50;;;6.82;;
47219;SDS011;32961;51.936;4.788;2023-07-31T03:38:16;27.00;;;7.55;;
47219;SDS011;32961;51.936;4.788;2023-07-31T03:40:44;36.22;;;9.18;;
47219;SDS011;32961;51.936;4.788;2023-07-31T03:43:14;29.20;;;8.38;;
47219;SDS011;32961;51.936;4.788;2023-07-31T03:45:43;23.75;;;7.00;;
47219;SDS011;32961;51.936;4.788;2023-07-31T03:48:10;20.42;;;6.38;;
47219;SDS011;32961;51.936;4.788;2023-07-31T03:50:38;34.53;;;9.23;;
47219;SDS011;32961;51.936;4.788;2023-07-31T03:53:06;24.52;;;7.40;;
47219;SDS011;32961;51.936;4.788;2023-07-31T03:55:34;26.58;;;7.13;;
47219;SDS011;32961;51.936;4.788;2023-07-31T03:58:02;22.25;;;6.75;;
47219;SDS011;32961;51.936;4.788;2023-07-31T04:00:31;25.05;;;7.32;;
47219;SDS011;32961;51.936;4.788;2023-07-31T04:02:59;22.80;;;6.75;;
47219;SDS011;32961;51.936;4.788;2023-07-31T04:05:29;22.35;;;6.65;;
47219;SDS011;32961;51.936;4.788;2023-07-31T04:07:58;22.23;;;7.43;;
47219;SDS011;32961;51.936;4.788;2023-07-31T04:10:25;27.00;;;7.22;;
47219;SDS011;32961;51.936;4.788;2023-07-31T04:12:53;21.67;;;7.93;;
47219;SDS011;32961;51.936;4.788;2023-07-31T04:15:21;25.27;;;7.57;;
47219;SDS011;32961;51.936;4.788;2023-07-31T04:17:50;22.70;;;6.95;;
47219;SDS011;32961;51.936;4.788;2023-07-31T04:20:18;20.13;;;7.32;;
47219;SDS011;32961;51.936;4.788;2023-07-31T04:22:46;21.13;;;6.45;;
47219;SDS011;32961;51.936;4.788;2023-07-31T04:25:14;20.10;;;6.80;;
47219;SDS011;32961;51.936;4.788;2023-07-31T04:27:43;20.27;;;5.97;;
47219;SDS011;32961;51.936;4.788;2023-07-31T04:30:11;16.75;;;5.65;;
47219;SDS011;32961;51.936;4.788;2023-07-31T04:32:39;19.25;;;5.35;;
47219;SDS011;32961;51.936;4.788;2023-07-31T04:35:08;19.40;;;5.88;;
47219;SDS011;32961;51.936;4.788;2023-07-31T04:37:36;17.80;;;5.93;;
47219;SDS011;32961;51.936;4.788;2023-07-31T04:40:05;16.98;;;5.28;;
47219;SDS011;32961;51.936;4.788;2023-07-31T04:42:34;12.75;;;5.28;;
47219;SDS011;32961;51.936;4.788;2023-07-31T04:45:02;13.07;;;5.00;;
47219;SDS011;32961;51.936;4.788;2023-07-31T04:47:31;13.63;;;4.80;;
47219;SDS011;32961;51.936;4.788;2023-07-31T04:49:59;18.40;;;5.40;;
47219;SDS011;32961;51.936;4.788;2023-07-31T04:52:28;17.75;;;5.65;;
47219;SDS011;32961;51.936;4.788;2023-07-31T04:54:56;19.23;;;5.57;;
47219;SDS011;32961;51.936;4.788;2023-07-31T04:57:24;16.58;;;5.10;;
47219;SDS011;32961;51.936;4.788;2023-07-31T04:59:51;21.73;;;5.97;;
47219;SDS011;32961;51.936;4.788;2023-07-31T05:02:19;22.83;;;5.35;;
47219;SDS011;32961;51.936;4.788;2023-07-31T05:04:47;21.60;;;6.68;;
47219;SDS011;32961;51.936;4.788;2023-07-31T05:07:15;21.63;;;6.03;;
47219;SDS011;32961;51.936;4.788;2023-07-31T05:09:44;18.70;;;5.53;;
47219;SDS011;32961;51.936;4.788;2023-07-31T05:12:12;17.73;;;5.65;;
47219;SDS011;32961;51.936;4.788;2023-07-31T05:14:40;17.02;;;4.63;;
47219;SDS011;32961;51.936;4.788;2023-07-31T05:17:08;19.25;;;5.18;;
47219;SDS011;32961;51.936;4.788;2023-07-31T05:19:36;14.50;;;4.53;;
47219;SDS011;32961;51.936;4.788;2023-07-31T05:22:04;14.60;;;5.13;;
47219;SDS011;32961;51.936;4.788;2023-07-31T05:24:32;14.50;;;4.45;;
47219;SDS011;32961;51.936;4.788;2023-07-31T05:27:01;15.45;;;6.38;;
47219;SDS011;32961;51.936;4.788;2023-07-31T05:29:30;17.42;;;4.47;;
47219;SDS011;32961;51.936;4.788;2023-07-31T05:31:58;14.65;;;4.60;;
47219;SDS011;32961;51.936;4.788;2023-07-31T05:34:26;15.65;;;4.80;;
47219;SDS011;32961;51.936;4.788;2023-07-31T05:36:53;12.23;;;4.72;;
47219;SDS011;32961;51.936;4.788;2023-07-31T05:39:21;13.75;;;5.05;;
47219;SDS011;32961;51.936;4.788;2023-07-31T05:41:49;13.02;;;4.75;;
47219;SDS011;32961;51.936;4.788;2023-07-31T05:44:18;10.45;;;4.63;;
47219;SDS011;32961;51.936;4.788;2023-07-31T05:46:46;15.82;;;5.60;;
47219;SDS011;32961;51.936;4.788;2023-07-31T05:49:14;11.77;;;4.18;;
47219;SDS011;32961;51.936;4.788;2023-07-31T05:51:42;9.57;;;5.00;;
47219;SDS011;32961;51.936;4.788;2023-07-31T05:54:09;12.55;;;4.07;;
47219;SDS011;32961;51.936;4.788;2023-07-31T05:56:37;10.90;;;4.07;;
47219;SDS011;32961;51.936;4.788;2023-07-31T05:59:06;7.07;;;3.60;;
47219;SDS011;32961;51.936;4.788;2023-07-31T06:01:35;13.50;;;3.75;;
47219;SDS011;32961;51.936;4.788;2023-07-31T06:04:03;10.57;;;3.55;;
47219;SDS011;32961;51.936;4.788;2023-07-31T06:06:31;8.90;;;3.22;;
47219;SDS011;32961;51.936;4.788;2023-07-31T06:08:59;8.60;;;3.60;;
47219;SDS011;32961;51.936;4.788;2023-07-31T06:11:27;10.73;;;4.93;;
47219;SDS011;32961;51.936;4.788;2023-07-31T06:13:54;9.35;;;3.83;;
47219;SDS011;32961;51.936;4.788;2023-07-31T06:16:22;9.13;;;3.53;;
47219;SDS011;32961;51.936;4.788;2023-07-31T06:18:51;11.38;;;4.07;;
47219;SDS011;32961;51.936;4.788;2023-07-31T06:21:19;8.23;;;3.70;;
47219;SDS011;32961;51.936;4.788;2023-07-31T06:23:47;11.02;;;3.83;;
47219;SDS011;32961;51.936;4.788;2023-07-31T06:26:15;8.15;;;3.85;;
47219;SDS011;32961;51.936;4.788;2023-07-31T06:28:43;9.77;;;3.45;;
47219;SDS011;32961;51.936;4.788;2023-07-31T06:31:11;14.25;;;4.07;;
47219;SDS011;32961;51.936;4.788;2023-07-31T06:33:39;10.70;;;3.75;;
47219;SDS011;32961;51.936;4.788;2023-07-31T06:36:08;8.93;;;3.30;;
47219;SDS011;32961;51.936;4.788;2023-07-31T06:38:36;10.93;;;3.22;;
47219;SDS011;32961;51.936;4.788;2023-07-31T06:41:04;11.00;;;3.55;;
47219;SDS011;32961;51.936;4.788;2023-07-31T06:43:32;9.05;;;3.10;;
47219;SDS011;32961;51.936;4.788;2023-07-31T06:46:00;6.95;;;2.63;;
47219;SDS011;32961;51.936;4.788;2023-07-31T06:48:32;5.70;;;2.60;;
47219;SDS011;32961;51.936;4.788;2023-07-31T06:51:00;6.97;;;2.75;;
47219;SDS011;32961;51.936;4.788;2023-07-31T06:53:29;4.50;;;2.35;;
47219;SDS011;32961;51.936;4.788;2023-07-31T06:55:57;6.93;;;2.97;;
47219;SDS011;32961;51.936;4.788;2023-07-31T06:58:25;4.72;;;2.15;;
47219;SDS011;32961;51.936;4.788;2023-07-31T07:00:53;7.43;;;2.63;;
47219;SDS011;32961;51.936;4.788;2023-07-31T07:03:21;7.25;;;2.50;;
47219;SDS011;32961;51.936;4.788;2023-07-31T07:05:49;7.80;;;2.90;;
47219;SDS011;32961;51.936;4.788;2023-07-31T07:08:17;10.07;;;2.80;;
47219;SDS011;32961;51.936;4.788;2023-07-31T07:10:46;7.43;;;2.50;;
47219;SDS011;32961;51.936;4.788;2023-07-31T07:13:14;5.53;;;2.17;;
47219;SDS011;32961;51.936;4.788;2023-07-31T07:15:42;6.22;;;1.88;;
47219;SDS011;32961;51.936;4.788;2023-07-31T07:18:10;6.38;;;1.98;;
47219;SDS011;32961;51.936;4.788;2023-07-31T07:20:38;7.20;;;2.13;;
47219;SDS011;32961;51.936;4.788;2023-07-31T07:23:05;6.53;;;2.22;;
47219;SDS011;32961;51.936;4.788;2023-07-31T07:25:37;3.70;;;2.10;;
47219;SDS011;32961;51.936;4.788;2023-07-31T07:28:06;3.88;;;2.20;;
47219;SDS011;32961;51.936;4.788;2023-07-31T07:30:34;3.65;;;1.70;;
47219;SDS011;32961;51.936;4.788;2023-07-31T07:33:02;2.70;;;1.73;;
47219;SDS011;32961;51.936;4.788;2023-07-31T07:35:30;5.32;;;2.20;;
47219;SDS011;32961;51.936;4.788;2023-07-31T07:38:00;5.15;;;1.88;;
47219;SDS011;32961;51.936;4.788;2023-07-31T07:40:28;3.10;;;1.63;;
47219;SDS011;32961;51.936;4.788;2023-07-31T07:42:56;3.85;;;1.70;;
47219;SDS011;32961;51.936;4.788;2023-07-31T07:45:27;4.30;;;1.60;;
47219;SDS011;32961;51.936;4.788;2023-07-31T07:47:55;4.43;;;1.70;;
47219;SDS011;32961;51.936;4.788;2023-07-31T07:50:24;4.85;;;2.42;;
47219;SDS011;32961;51.936;4.788;2023-07-31T07:52:52;4.55;;;2.38;;
47219;SDS011;32961;51.936;4.788;2023-07-31T07:55:20;5.22;;;2.13;;
47219;SDS011;32961;51.936;4.788;2023-07-31T07:57:48;2.60;;;1.70;;
47219;SDS011;32961;51.936;4.788;2023-07-31T08:00:16;6.32;;;2.15;;
47219;SDS011;32961;51.936;4.788;2023-07-31T08:02:46;5.72;;;1.63;;
47219;SDS011;32961;51.936;4.788;2023-07-31T08:05:14;2.20;;;1.40;;
47219;SDS011;32961;51.936;4.788;2023-07-31T08:07:43;3.33;;;1.73;;
47219;SDS011;32961;51.936;4.788;2023-07-31T08:10:11;2.30;;;1.58;;
47219;SDS011;32961;51.936;4.788;2023-07-31T08:12:39;2.78;;;1.63;;
47219;SDS011;32961;51.936;4.788;2023-07-31T08:15:07;2.55;;;1.50;;
47219;SDS011;32961;51.936;4.788;2023-07-31T08:17:35;2.88;;;1.67;;
47219;SDS011;32961;51.936;4.788;2023-07-31T08:20:05;3.65;;;1.60;;
47219;SDS011;32961;51.936;4.788;2023-07-31T08:22:34;2.58;;;1.60;;
47219;SDS011;32961;51.936;4.788;2023-07-31T08:25:02;4.18;;;2.45;;
47219;SDS011;32961;51.936;4.788;2023-07-31T08:27:30;4.47;;;2.22;;
47219;SDS011;32961;51.936;4.788;2023-07-31T08:29:58;3.50;;;1.58;;
47219;SDS011;32961;51.936;4.788;2023-07-31T08:32:26;3.83;;;1.83;;
47219;SDS011;32961;51.936;4.788;2023-07-31T08:34:54;3.13;;;1.55;;
47219;SDS011;32961;51.936;4.788;2023-07-31T08:37:23;2.85;;;1.67;;
47219;SDS011;32961;51.936;4.788;2023-07-31T08:39:51;2.72;;;1.70;;
47219;SDS011;32961;51.936;4.788;2023-07-31T08:42:19;4.22;;;1.85;;
47219;SDS011;32961;51.936;4.788;2023-07-31T08:44:47;3.45;;;2.17;;
47219;SDS011;32961;51.936;4.788;2023-07-31T08:47:17;3.65;;;2.13;;
47219;SDS011;32961;51.936;4.788;2023-07-31T08:49:46;2.85;;;2.03;;
47219;SDS011;32961;51.936;4.788;2023-07-31T08:52:15;2.70;;;2.13;;
47219;SDS011;32961;51.936;4.788;2023-07-31T08:54:44;4.03;;;1.73;;
47219;SDS011;32961;51.936;4.788;2023-07-31T08:57:12;4.22;;;2.00;;
47219;SDS011;32961;51.936;4.788;2023-07-31T08:59:41;3.20;;;1.77;;
47219;SDS011;32961;51.936;4.788;2023-07-31T09:02:10;2.45;;;1.90;;
47219;SDS011;32961;51.936;4.788;2023-07-31T09:04:40;4.30;;;1.80;;
47219;SDS011;32961;51.936;4.788;2023-07-31T09:07:08;3.45;;;2.15;;
47219;SDS011;32961;51.936;4.788;2023-07-31T09:09:39;3.78;;;1.90;;
47219;SDS011;32961;51.936;4.788;2023-07-31T09:12:09;7.13;;;1.90;;
47219;SDS011;32961;51.936;4.788;2023-07-31T09:14:36;4.07;;;2.50;;
47219;SDS011;32961;51.936;4.788;2023-07-31T09:17:05;4.75;;;2.40;;
47219;SDS011;32961;51.936;4.788;2023-07-31T09:19:34;5.32;;;2.47;;
47219;SDS011;32961;51.936;4.788;2023-07-31T09:22:04;3.13;;;2.00;;
47219;SDS011;32961;51.936;4.788;2023-07-31T09:24:32;6.13;;;2.58;;
47219;SDS011;32961;51.936;4.788;2023-07-31T09:27:01;4.30;;;2.90;;
47219;SDS011;32961;51.936;4.788;2023-07-31T09:29:31;3.03;;;2.05;;
47219;SDS011;32961;51.936;4.788;2023-07-31T09:31:59;6.25;;;2.45;;
47219;SDS011;32961;51.936;4.788;2023-07-31T09:34:30;6.18;;;2.55;;
47219;SDS011;32961;51.936;4.788;2023-07-31T09:37:04;6.20;;;2.80;;
47219;SDS011;32961;51.936;4.788;2023-07-31T09:39:32;5.22;;;3.28;;
47219;SDS011;32961;51.936;4.788;2023-07-31T09:42:13;4.32;;;2.75;;
47219;SDS011;32961;51.936;4.788;2023-07-31T09:44:42;5.78;;;3.13;;
47219;SDS011;32961;51.936;4.788;2023-07-31T09:47:20;4.82;;;2.97;;
47219;SDS011;32961;51.936;4.788;2023-07-31T09:49:50;5.18;;;2.80;;
47219;SDS011;32961;51.936;4.788;2023-07-31T09:52:18;8.43;;;3.20;;
47219;SDS011;32961;51.936;4.788;2023-07-31T09:54:46;5.65;;;3.00;;
47219;SDS011;32961;51.936;4.788;2023-07-31T09:57:14;6.97;;;3.00;;
47219;SDS011;32961;51.936;4.788;2023-07-31T09:59:47;4.45;;;2.75;;
47219;SDS011;32961;51.936;4.788;2023-07-31T10:02:19;6.43;;;3.00;;
47219;SDS011;32961;51.936;4.788;2023-07-31T10:04:49;4.55;;;2.83;;
47219;SDS011;32961;51.936;4.788;2023-07-31T10:07:18;5.70;;;2.60;;
47219;SDS011;32961;51.936;4.788;2023-07-31T10:09:50;4.32;;;2.30;;
47219;SDS011;32961;51.936;4.788;2023-07-31T10:12:19;6.18;;;2.22;;
47219;SDS011;32961;51.936;4.788;2023-07-31T10:14:54;5.93;;;2.38;;
47219;SDS011;32961;51.936;4.788;2023-07-31T10:17:22;3.55;;;1.90;;
47219;SDS011;32961;51.936;4.788;2023-07-31T10:19:50;4.28;;;1.65;;
47219;SDS011;32961;51.936;4.788;2023-07-31T10:22:21;2.85;;;1.48;;
47219;SDS011;32961;51.936;4.788;2023-07-31T10:24:50;1.65;;;1.30;;
47219;SDS011;32961;51.936;4.788;2023-07-31T10:27:19;1.88;;;1.40;;
47219;SDS011;32961;51.936;4.788;2023-07-31T10:29:47;2.97;;;1.75;;
47219;SDS011;32961;51.936;4.788;2023-07-31T10:32:17;3.22;;;2.15;;
47219;SDS011;32961;51.936;4.788;2023-07-31T10:34:46;5.57;;;1.95;;
47219;SDS011;32961;51.936;4.788;2023-07-31T10:37:23;4.43;;;2.00;;
47219;SDS011;32961;51.936;4.788;2023-07-31T10:39:56;3.83;;;2.00;;
47219;SDS011;32961;51.936;4.788;2023-07-31T10:42:31;4.45;;;2.00;;
47219;SDS011;32961;51.936;4.788;2023-07-31T10:45:02;6.97;;;2.38;;
47219;SDS011;32961;51.936;4.788;2023-07-31T10:47:32;4.10;;;2.20;;
47219;SDS011;32961;51.936;4.788;2023-07-31T10:50:11;4.30;;;2.30;;
47219;SDS011;32961;51.936;4.788;2023-07-31T10:52:50;3.58;;;2.08;;
47219;SDS011;32961;51.936;4.788;2023-07-31T10:55:24;3.50;;;2.03;;
47219;SDS011;32961;51.936;4.788;2023-07-31T10:57:54;3.75;;;2.38;;
47219;SDS011;32961;51.936;4.788;2023-07-31T11:00:25;4.05;;;3.45;;
47219;SDS011;32961;51.936;4.788;2023-07-31T11:03:02;6.13;;;3.15;;
47219;SDS011;32961;51.936;4.788;2023-07-31T11:05:44;3.58;;;2.25;;
47219;SDS011;32961;51.936;4.788;2023-07-31T11:08:17;3.60;;;2.70;;
47219;SDS011;32961;51.936;4.788;2023-07-31T11:10:47;7.53;;;3.05;;
47219;SDS011;32961;51.936;4.788;2023-07-31T11:13:16;7.63;;;3.55;;
47219;SDS011;32961;51.936;4.788;2023-07-31T11:15:44;8.98;;;3.72;;
47219;SDS011;32961;51.936;4.788;2023-07-31T11:18:15;6.72;;;3.92;;
47219;SDS011;32961;51.936;4.788;2023-07-31T11:20:43;8.82;;;4.32;;
47219;SDS011;32961;51.936;4.788;2023-07-31T11:23:11;6.18;;;3.92;;
47219;SDS011;32961;51.936;4.788;2023-07-31T11:25:39;6.32;;;3.58;;
47219;SDS011;32961;51.936;4.788;2023-07-31T11:28:09;7.47;;;3.67;;
47219;SDS011;32961;51.936;4.788;2023-07-31T11:30:38;4.18;;;3.25;;
47219;SDS011;32961;51.936;4.788;2023-07-31T11:33:07;4.50;;;3.10;;
47219;SDS011;32961;51.936;4.788;2023-07-31T11:35:40;3.08;;;2.78;;
47219;SDS011;32961;51.936;4.788;2023-07-31T11:38:11;4.03;;;3.00;;
47219;SDS011;32961;51.936;4.788;2023-07-31T11:40:42;5.45;;;3.38;;
47219;SDS011;32961;51.936;4.788;2023-07-31T11:43:11;5.50;;;3.13;;
47219;SDS011;32961;51.936;4.788;2023-07-31T11:45:44;3.42;;;2.72;;
47219;SDS011;32961;51.936;4.788;2023-07-31T11:48:23;5.60;;;2.95;;
47219;SDS011;32961;51.936;4.788;2023-07-31T11:50:57;6.32;;;2.90;;
47219;SDS011;32961;51.936;4.788;2023-07-31T11:53:26;2.85;;;2.28;;
47219;SDS011;32961;51.936;4.788;2023-07-31T11:55:59;3.47;;;2.60;;
47219;SDS011;32961;51.936;4.788;2023-07-31T11:58:29;3.95;;;2.47;;
47219;SDS011;32961;51.936;4.788;2023-07-31T12:00:58;4.72;;;2.65;;
47219;SDS011;32961;51.936;4.788;2023-07-31T12:03:26;2.95;;;2.20;;
47219;SDS011;32961;51.936;4.788;2023-07-31T12:05:56;7.00;;;2.72;;
47219;SDS011;32961;51.936;4.788;2023-07-31T12:08:25;5.40;;;2.40;;
47219;SDS011;32961;51.936;4.788;2023-07-31T12:10:54;4.28;;;2.33;;
47219;SDS011;32961;51.936;4.788;2023-07-31T12:13:22;5.45;;;3.00;;
47219;SDS011;32961;51.936;4.788;2023-07-31T12:15:53;4.88;;;4.00;;
47219;SDS011;32961;51.936;4.788;2023-07-31T12:18:23;3.65;;;2.58;;
47219;SDS011;32961;51.936;4.788;2023-07-31T12:20:53;3.38;;;2.28;;
47219;SDS011;32961;51.936;4.788;2023-07-31T12:23:25;3.88;;;2.67;;
47219;SDS011;32961;51.936;4.788;2023-07-31T12:26:01;3.33;;;2.53;;
47219;SDS011;32961;51.936;4.788;2023-07-31T12:28:29;6.70;;;2.45;;
47219;SDS011;32961;51.936;4.788;2023-07-31T12:30:58;2.92;;;2.20;;
47219;SDS011;32961;51.936;4.788;2023-07-31T12:33:30;2.30;;;2.10;;
47219;SDS011;32961;51.936;4.788;2023-07-31T12:36:00;4.38;;;2.33;;
47219;SDS011;32961;51.936;4.788;2023-07-31T12:38:30;2.85;;;2.10;;
47219;SDS011;32961;51.936;4.788;2023-07-31T12:40:58;3.75;;;2.17;;
47219;SDS011;32961;51.936;4.788;2023-07-31T12:43:26;2.50;;;2.00;;
47219;SDS011;32961;51.936;4.788;2023-07-31T12:45:54;2.45;;;2.22;;
47219;SDS011;32961;51.936;4.788;2023-07-31T12:48:22;7.07;;;3.22;;
47219;SDS011;32961;51.936;4.788;2023-07-31T12:50:53;4.65;;;2.22;;
47219;SDS011;32961;51.936;4.788;2023-07-31T12:53:21;2.92;;;1.77;;
47219;SDS011;32961;51.936;4.788;2023-07-31T12:55:50;4.15;;;2.03;;
47219;SDS011;32961;51.936;4.788;2023-07-31T12:58:18;3.33;;;1.92;;
47219;SDS011;32961;51.936;4.788;2023-07-31T13:00:45;1.73;;;1.58;;
47219;SDS011;32961;51.936;4.788;2023-07-31T13:03:13;3.45;;;1.40;;
47219;SDS011;32961;51.936;4.788;2023-07-31T13:05:41;1.80;;;1.45;;
47219;SDS011;32961;51.936;4.788;2023-07-31T13:08:09;2.90;;;1.65;;
47219;SDS011;32961;51.936;4.788;2023-07-31T13:10:38;3.83;;;1.65;;
47219;SDS011;32961;51.936;4.788;2023-07-31T13:13:07;4.40;;;1.83;;
47219;SDS011;32961;51.936;4.788;2023-07-31T13:15:36;3.25;;;2.03;;
47219;SDS011;32961;51.936;4.788;2023-07-31T13:18:04;3.05;;;2.03;;
47219;SDS011;32961;51.936;4.788;2023-07-31T13:20:32;2.80;;;2.40;;
47219;SDS011;32961;51.936;4.788;2023-07-31T13:23:00;1.35;;;1.23;;
47219;SDS011;32961;51.936;4.788;2023-07-31T13:25:28;1.50;;;1.40;;
47219;SDS011;32961;51.936;4.788;2023-07-31T13:27:56;3.53;;;2.08;;
47219;SDS011;32961;51.936;4.788;2023-07-31T13:30:27;2.83;;;1.73;;
47219;SDS011;32961;51.936;4.788;2023-07-31T13:32:55;4.20;;;2.20;;
47219;SDS011;32961;51.936;4.788;2023-07-31T13:35:23;3.65;;;1.80;;
47219;SDS011;32961;51.936;4.788;2023-07-31T13:37:51;4.65;;;1.60;;
47219;SDS011;32961;51.936;4.788;2023-07-31T13:40:19;5.13;;;1.50;;
47219;SDS011;32961;51.936;4.788;2023-07-31T13:42:46;4.22;;;2.05;;
47219;SDS011;32961;51.936;4.788;2023-07-31T13:45:14;3.97;;;1.73;;
47219;SDS011;32961;51.936;4.788;2023-07-31T13:47:44;4.65;;;1.67;;
47219;SDS011;32961;51.936;4.788;2023-07-31T13:50:12;3.60;;;1.63;;
47219;SDS011;32961;51.936;4.788;2023-07-31T13:52:39;1.92;;;1.40;;
47219;SDS011;32961;51.936;4.788;2023-07-31T13:55:07;3.60;;;1.50;;
47219;SDS011;32961;51.936;4.788;2023-07-31T13:57:35;2.20;;;1.48;;
47219;SDS011;32961;51.936;4.788;2023-07-31T14:00:03;2.30;;;1.60;;
47219;SDS011;32961;51.936;4.788;2023-07-31T14:02:35;4.03;;;2.25;;
47219;SDS011;32961;51.936;4.788;2023-07-31T14:05:04;1.48;;;1.20;;
47219;SDS011;32961;51.936;4.788;2023-07-31T14:07:34;2.78;;;1.20;;
47219;SDS011;32961;51.936;4.788;2023-07-31T14:10:02;4.22;;;1.50;;
47219;SDS011;32961;51.936;4.788;2023-07-31T14:12:30;2.70;;;1.10;;
47219;SDS011;32961;51.936;4.788;2023-07-31T14:15:08;2.22;;;1.60;;
47219;SDS011;32961;51.936;4.788;2023-07-31T14:17:37;3.72;;;1.60;;
47219;SDS011;32961;51.936;4.788;2023-07-31T14:20:07;3.13;;;1.92;;
47219;SDS011;32961;51.936;4.788;2023-07-31T14:22:36;2.50;;;2.00;;
47219;SDS011;32961;51.936;4.788;2023-07-31T14:25:05;5.13;;;2.30;;
47219;SDS011;32961;51.936;4.788;2023-07-31T14:27:33;5.97;;;2.35;;
47219;SDS011;32961;51.936;4.788;2023-07-31T14:30:00;5.88;;;3.00;;
47219;SDS011;32961;51.936;4.788;2023-07-31T14:32:28;6.55;;;2.60;;
47219;SDS011;32961;51.936;4.788;2023-07-31T14:34:56;5.00;;;2.90;;
47219;SDS011;32961;51.936;4.788;2023-07-31T14:37:26;7.40;;;3.45;;
47219;SDS011;32961;51.936;4.788;2023-07-31T14:40:04;5.32;;;3.05;;
47219;SDS011;32961;51.936;4.788;2023-07-31T14:42:32;5.40;;;2.60;;
47219;SDS011;32961;51.936;4.788;2023-07-31T14:45:01;3.72;;;3.13;;
47219;SDS011;32961;51.936;4.788;2023-07-31T14:47:29;5.38;;;3.47;;
47219;SDS011;32961;51.936;4.788;2023-07-31T14:49:57;7.30;;;3.78;;
47219;SDS011;32961;51.936;4.788;2023-07-31T14:52:26;4.82;;;4.07;;
47219;SDS011;32961;51.936;4.788;2023-07-31T14:54:54;6.00;;;3.85;;
47219;SDS011;32961;51.936;4.788;2023-07-31T14:57:22;3.95;;;3.33;;